sensor_id;sensor_type;location;lat;lon;timestamp;pressure;altitude;pressure_sealevel;temperature;humidity
84524;BME280;74765;44.538;18.668;2024-03-06T00:00:10;98712.59;;;17.37;42.83
84524;BME280;74765;44.538;18.668;2024-03-06T00:02:36;98702.97;;;17.24;42.47
84524;BME280;74765;44.538;18.668;2024-03-06T00:05:02;98715.34;;;16.42;44.97
84524;BME280;74765;44.538;18.668;2024-03-06T00:07:28;98717.19;;;17.36;42.48
84524;BME280;74765;44.538;18.668;2024-03-06T00:09:54;98716.19;;;17.42;42.39
84524;BME280;74765;44.538;18.668;2024-03-06T00:12:19;98710.44;;;17.77;42.09
84524;BME280;74765;44.538;18.668;2024-03-06T00:14:45;98710.94;;;16.81;43.81
84524;BME280;74765;44.538;18.668;2024-03-06T00:17:11;98710.91;;;16.97;43.90
84524;BME280;74765;44.538;18.668;2024-03-06T00:19:37;98712.59;;;17.20;43.51
84524;BME280;74765;44.538;18.668;2024-03-06T00:22:02;98716.03;;;17.32;43.14
84524;BME280;74765;44.538;18.668;2024-03-06T00:24:29;98720.63;;;17.32;42.99
84524;BME280;74765;44.538;18.668;2024-03-06T00:26:54;98719.00;;;17.31;43.06
84524;BME280;74765;44.538;18.668;2024-03-06T00:29:20;98710.13;;;17.52;42.48
84524;BME280;74765;44.538;18.668;2024-03-06T00:31:46;98716.88;;;17.33;43.20
84524;BME280;74765;44.538;18.668;2024-03-06T00:34:13;98715.22;;;17.32;43.24
84524;BME280;74765;44.538;18.668;2024-03-06T00:36:42;98712.13;;;17.06;43.79
84524;BME280;74765;44.538;18.668;2024-03-06T00:39:09;98713.81;;;16.91;44.31
84524;BME280;74765;44.538;18.668;2024-03-06T00:41:35;98709.06;;;16.81;44.49
84524;BME280;74765;44.538;18.668;2024-03-06T00:44:02;98714.84;;;16.28;45.82
84524;BME280;74765;44.538;18.668;2024-03-06T00:46:28;98712.94;;;16.57;45.00
84524;BME280;74765;44.538;18.668;2024-03-06T00:48:53;98719.50;;;16.61;45.14
84524;BME280;74765;44.538;18.668;2024-03-06T00:51:19;98712.81;;;16.80;44.75
84524;BME280;74765;44.538;18.668;2024-03-06T00:53:45;98707.75;;;17.00;44.25
84524;BME280;74765;44.538;18.668;2024-03-06T00:56:11;98707.31;;;16.30;45.76
84524;BME280;74765;44.538;18.668;2024-03-06T00:58:37;98711.00;;;16.69;45.21
84524;BME280;74765;44.538;18.668;2024-03-06T01:01:02;98719.19;;;16.74;44.86
84524;BME280;74765;44.538;18.668;2024-03-06T01:03:28;98709.44;;;16.73;44.45
84524;BME280;74765;44.538;18.668;2024-03-06T01:05:54;98714.47;;;16.81;44.45
84524;BME280;74765;44.538;18.668;2024-03-06T01:08:22;98713.06;;;16.34;45.73
84524;BME280;74765;44.538;18.668;2024-03-06T01:10:52;98717.88;;;16.60;45.10
84524;BME280;74765;44.538;18.668;2024-03-06T01:13:21;98715.66;;;16.74;44.47
84524;BME280;74765;44.538;18.668;2024-03-06T01:15:47;98718.78;;;16.82;44.26
84524;BME280;74765;44.538;18.668;2024-03-06T01:18:13;98711.41;;;16.78;44.23
84524;BME280;74765;44.538;18.668;2024-03-06T01:20:39;98719.69;;;16.71;44.44
84524;BME280;74765;44.538;18.668;2024-03-06T01:23:05;98719.28;;;16.63;44.47
84524;BME280;74765;44.538;18.668;2024-03-06T01:25:31;98724.78;;;16.56;45.12
84524;BME280;74765;44.538;18.668;2024-03-06T01:27:56;98728.44;;;16.50;44.83
84524;BME280;74765;44.538;18.668;2024-03-06T01:30:22;98726.03;;;16.20;45.91
84524;BME280;74765;44.538;18.668;2024-03-06T01:32:48;98734.25;;;16.13;45.90
84524;BME280;74765;44.538;18.668;2024-03-06T01:35:13;98730.19;;;15.99;46.42
84524;BME280;74765;44.538;18.668;2024-03-06T01:37:39;98721.41;;;15.52;47.14
84524;BME280;74765;44.538;18.668;2024-03-06T01:40:07;98722.41;;;15.40;47.54
84524;BME280;74765;44.538;18.668;2024-03-06T01:42:34;98724.06;;;15.75;46.96
84524;BME280;74765;44.538;18.668;2024-03-06T01:45:00;98722.22;;;16.04;46.03
84524;BME280;74765;44.538;18.668;2024-03-06T01:47:25;98725.72;;;16.33;45.19
84524;BME280;74765;44.538;18.668;2024-03-06T01:49:51;98730.34;;;16.21;45.42
84524;BME280;74765;44.538;18.668;2024-03-06T01:52:17;98712.88;;;15.95;46.28
84524;BME280;74765;44.538;18.668;2024-03-06T01:54:44;98728.25;;;16.11;45.91
84524;BME280;74765;44.538;18.668;2024-03-06T01:57:11;98729.59;;;15.97;46.08
84524;BME280;74765;44.538;18.668;2024-03-06T01:59:42;98728.28;;;15.60;46.86
84524;BME280;74765;44.538;18.668;2024-03-06T02:02:07;98728.88;;;15.62;46.28
84524;BME280;74765;44.538;18.668;2024-03-06T02:04:39;98738.69;;;15.80;46.11
84524;BME280;74765;44.538;18.668;2024-03-06T02:07:09;98729.94;;;15.61;46.89
84524;BME280;74765;44.538;18.668;2024-03-06T02:09:38;98735.22;;;15.32;47.44
84524;BME280;74765;44.538;18.668;2024-03-06T02:12:07;98734.75;;;14.48;49.87
84524;BME280;74765;44.538;18.668;2024-03-06T02:14:36;98732.75;;;15.19;47.90
84524;BME280;74765;44.538;18.668;2024-03-06T02:17:02;98736.72;;;15.28;47.54
84524;BME280;74765;44.538;18.668;2024-03-06T02:19:40;98729.09;;;15.25;47.67
84524;BME280;74765;44.538;18.668;2024-03-06T02:22:07;98718.94;;;15.51;46.87
84524;BME280;74765;44.538;18.668;2024-03-06T02:24:34;98730.88;;;15.31;46.97
84524;BME280;74765;44.538;18.668;2024-03-06T02:27:00;98733.94;;;15.23;47.24
84524;BME280;74765;44.538;18.668;2024-03-06T02:29:26;98730.50;;;15.16;47.77
84524;BME280;74765;44.538;18.668;2024-03-06T02:31:51;98730.72;;;15.50;46.91
84524;BME280;74765;44.538;18.668;2024-03-06T02:34:17;98728.06;;;15.26;47.79
84524;BME280;74765;44.538;18.668;2024-03-06T02:36:43;98728.41;;;15.65;47.21
84524;BME280;74765;44.538;18.668;2024-03-06T02:39:09;98730.75;;;15.61;46.91
84524;BME280;74765;44.538;18.668;2024-03-06T02:41:36;98735.44;;;15.31;46.92
84524;BME280;74765;44.538;18.668;2024-03-06T02:44:02;98725.31;;;15.73;46.39
84524;BME280;74765;44.538;18.668;2024-03-06T02:46:28;98722.81;;;15.20;47.65
84524;BME280;74765;44.538;18.668;2024-03-06T02:48:54;98716.00;;;15.52;47.02
84524;BME280;74765;44.538;18.668;2024-03-06T02:51:21;98715.56;;;15.20;47.56
84524;BME280;74765;44.538;18.668;2024-03-06T02:53:46;98725.50;;;15.20;47.87
84524;BME280;74765;44.538;18.668;2024-03-06T02:56:18;98733.09;;;15.00;48.37
84524;BME280;74765;44.538;18.668;2024-03-06T02:58:44;98733.69;;;15.37;47.39
84524;BME280;74765;44.538;18.668;2024-03-06T03:01:10;98733.59;;;15.20;48.21
84524;BME280;74765;44.538;18.668;2024-03-06T03:03:36;98741.66;;;15.20;47.97
84524;BME280;74765;44.538;18.668;2024-03-06T03:06:02;98741.75;;;15.48;46.94
84524;BME280;74765;44.538;18.668;2024-03-06T03:08:28;98746.56;;;15.46;46.60
84524;BME280;74765;44.538;18.668;2024-03-06T03:10:54;98742.34;;;15.27;47.41
84524;BME280;74765;44.538;18.668;2024-03-06T03:13:20;98750.91;;;15.47;46.99
84524;BME280;74765;44.538;18.668;2024-03-06T03:15:47;98751.38;;;15.56;46.76
84524;BME280;74765;44.538;18.668;2024-03-06T03:18:13;98750.78;;;15.42;47.14
84524;BME280;74765;44.538;18.668;2024-03-06T03:20:39;98751.47;;;15.38;47.29
84524;BME280;74765;44.538;18.668;2024-03-06T03:23:05;98757.44;;;15.16;47.85
84524;BME280;74765;44.538;18.668;2024-03-06T03:25:31;98756.38;;;15.41;47.10
84524;BME280;74765;44.538;18.668;2024-03-06T03:27:59;98758.53;;;15.62;46.21
84524;BME280;74765;44.538;18.668;2024-03-06T03:30:25;98750.22;;;15.52;46.69
84524;BME280;74765;44.538;18.668;2024-03-06T03:32:51;98751.38;;;15.44;46.52
84524;BME280;74765;44.538;18.668;2024-03-06T03:35:16;98748.91;;;15.31;47.29
84524;BME280;74765;44.538;18.668;2024-03-06T03:37:46;98749.16;;;15.53;46.54
84524;BME280;74765;44.538;18.668;2024-03-06T03:40:12;98749.59;;;15.73;45.90
84524;BME280;74765;44.538;18.668;2024-03-06T03:42:38;98755.84;;;15.62;46.12
84524;BME280;74765;44.538;18.668;2024-03-06T03:45:04;98760.97;;;15.63;46.21
84524;BME280;74765;44.538;18.668;2024-03-06T03:47:30;98763.44;;;15.42;46.50
84524;BME280;74765;44.538;18.668;2024-03-06T03:49:55;98759.91;;;15.41;46.56
84524;BME280;74765;44.538;18.668;2024-03-06T03:52:21;98769.19;;;15.57;46.21
84524;BME280;74765;44.538;18.668;2024-03-06T03:54:47;98770.59;;;15.59;46.29
84524;BME280;74765;44.538;18.668;2024-03-06T03:57:13;98768.25;;;15.51;46.82
84524;BME280;74765;44.538;18.668;2024-03-06T03:59:39;98766.97;;;15.54;46.44
84524;BME280;74765;44.538;18.668;2024-03-06T04:02:08;98769.75;;;15.12;47.49
84524;BME280;74765;44.538;18.668;2024-03-06T04:04:33;98771.22;;;14.43;49.16
84524;BME280;74765;44.538;18.668;2024-03-06T04:07:00;98764.59;;;14.99;48.38
84524;BME280;74765;44.538;18.668;2024-03-06T04:09:29;98760.19;;;15.63;46.93
84524;BME280;74765;44.538;18.668;2024-03-06T04:11:55;98763.22;;;15.55;47.04
84524;BME280;74765;44.538;18.668;2024-03-06T04:14:22;98758.19;;;15.58;46.93
84524;BME280;74765;44.538;18.668;2024-03-06T04:16:47;98755.47;;;15.70;46.44
84524;BME280;74765;44.538;18.668;2024-03-06T04:19:13;98763.09;;;15.61;46.26
84524;BME280;74765;44.538;18.668;2024-03-06T04:21:42;98759.91;;;15.64;46.28
84524;BME280;74765;44.538;18.668;2024-03-06T04:24:08;98760.13;;;15.40;46.34
84524;BME280;74765;44.538;18.668;2024-03-06T04:26:34;98761.91;;;15.34;46.44
84524;BME280;74765;44.538;18.668;2024-03-06T04:29:00;98764.31;;;14.89;47.65
84524;BME280;74765;44.538;18.668;2024-03-06T04:31:26;98756.44;;;14.64;48.34
84524;BME280;74765;44.538;18.668;2024-03-06T04:33:51;98761.59;;;14.66;47.83
84524;BME280;74765;44.538;18.668;2024-03-06T04:36:17;98764.44;;;14.94;47.65
84524;BME280;74765;44.538;18.668;2024-03-06T04:38:43;98765.38;;;14.76;47.99
84524;BME280;74765;44.538;18.668;2024-03-06T04:41:08;98768.38;;;14.68;48.50
84524;BME280;74765;44.538;18.668;2024-03-06T04:43:36;98772.88;;;14.86;48.19
84524;BME280;74765;44.538;18.668;2024-03-06T04:46:02;98774.84;;;14.79;48.54
84524;BME280;74765;44.538;18.668;2024-03-06T04:48:27;98770.41;;;14.73;48.32
84524;BME280;74765;44.538;18.668;2024-03-06T04:50:53;98772.06;;;14.85;48.08
84524;BME280;74765;44.538;18.668;2024-03-06T04:53:19;98767.00;;;14.77;48.36
84524;BME280;74765;44.538;18.668;2024-03-06T04:55:48;98776.16;;;14.47;48.79
84524;BME280;74765;44.538;18.668;2024-03-06T04:58:13;98770.69;;;13.87;49.96
84524;BME280;74765;44.538;18.668;2024-03-06T05:00:39;98773.19;;;14.36;49.00
84524;BME280;74765;44.538;18.668;2024-03-06T05:03:05;98774.41;;;14.04;49.81
84524;BME280;74765;44.538;18.668;2024-03-06T05:05:31;98779.09;;;14.09;49.74
84524;BME280;74765;44.538;18.668;2024-03-06T05:07:57;98779.47;;;13.94;50.11
84524;BME280;74765;44.538;18.668;2024-03-06T05:10:23;98785.44;;;13.59;50.89
84524;BME280;74765;44.538;18.668;2024-03-06T05:12:49;98783.66;;;14.08;49.15
84524;BME280;74765;44.538;18.668;2024-03-06T05:15:16;98779.84;;;13.97;49.09
84524;BME280;74765;44.538;18.668;2024-03-06T05:17:41;98778.13;;;14.03;49.34
84524;BME280;74765;44.538;18.668;2024-03-06T05:20:07;98785.38;;;13.84;49.82
84524;BME280;74765;44.538;18.668;2024-03-06T05:22:33;98788.34;;;14.13;49.42
84524;BME280;74765;44.538;18.668;2024-03-06T05:24:59;98785.75;;;13.51;51.21
84524;BME280;74765;44.538;18.668;2024-03-06T05:27:25;98780.41;;;13.27;51.48
84524;BME280;74765;44.538;18.668;2024-03-06T05:29:51;98785.53;;;14.08;49.43
84524;BME280;74765;44.538;18.668;2024-03-06T05:32:17;98788.22;;;13.71;50.00
84524;BME280;74765;44.538;18.668;2024-03-06T05:34:43;98789.59;;;14.28;48.47
84524;BME280;74765;44.538;18.668;2024-03-06T05:37:10;98785.16;;;14.04;49.21
84524;BME280;74765;44.538;18.668;2024-03-06T05:39:36;98788.09;;;14.32;48.80
84524;BME280;74765;44.538;18.668;2024-03-06T05:42:04;98788.34;;;14.61;48.26
84524;BME280;74765;44.538;18.668;2024-03-06T05:44:33;98791.94;;;14.55;48.31
84524;BME280;74765;44.538;18.668;2024-03-06T05:47:00;98789.19;;;14.61;48.17
84524;BME280;74765;44.538;18.668;2024-03-06T05:49:29;98798.50;;;14.47;48.35
84524;BME280;74765;44.538;18.668;2024-03-06T05:51:55;98803.19;;;14.52;47.41
84524;BME280;74765;44.538;18.668;2024-03-06T05:54:21;98805.19;;;14.98;46.91
84524;BME280;74765;44.538;18.668;2024-03-06T05:56:48;98806.06;;;15.33;45.65
84524;BME280;74765;44.538;18.668;2024-03-06T05:59:15;98799.63;;;15.46;44.31
84524;BME280;74765;44.538;18.668;2024-03-06T06:01:41;98800.94;;;15.66;44.43
84524;BME280;74765;44.538;18.668;2024-03-06T06:04:08;98804.16;;;16.03;44.10
84524;BME280;74765;44.538;18.668;2024-03-06T06:06:35;98809.03;;;16.30;42.96
84524;BME280;74765;44.538;18.668;2024-03-06T06:09:01;98807.88;;;16.82;42.53
84524;BME280;74765;44.538;18.668;2024-03-06T06:11:30;98810.50;;;16.77;41.93
84524;BME280;74765;44.538;18.668;2024-03-06T06:13:56;98816.94;;;17.04;42.23
84524;BME280;74765;44.538;18.668;2024-03-06T06:16:22;98818.00;;;16.47;42.52
84524;BME280;74765;44.538;18.668;2024-03-06T06:18:47;98808.59;;;17.23;41.56
84524;BME280;74765;44.538;18.668;2024-03-06T06:21:13;98805.25;;;17.87;40.29
84524;BME280;74765;44.538;18.668;2024-03-06T06:23:41;98816.22;;;17.98;39.83
84524;BME280;74765;44.538;18.668;2024-03-06T06:26:09;98809.13;;;18.13;39.74
84524;BME280;74765;44.538;18.668;2024-03-06T06:28:36;98806.94;;;18.10;39.42
84524;BME280;74765;44.538;18.668;2024-03-06T06:31:03;98812.28;;;18.75;37.69
84524;BME280;74765;44.538;18.668;2024-03-06T06:33:30;98811.47;;;19.34;36.89
84524;BME280;74765;44.538;18.668;2024-03-06T06:35:56;98811.41;;;19.60;37.00
84524;BME280;74765;44.538;18.668;2024-03-06T06:38:22;98813.44;;;19.80;36.40
84524;BME280;74765;44.538;18.668;2024-03-06T06:40:49;98810.69;;;20.22;35.31
84524;BME280;74765;44.538;18.668;2024-03-06T06:43:16;98813.50;;;19.90;35.90
84524;BME280;74765;44.538;18.668;2024-03-06T06:45:42;98810.56;;;20.02;35.65
84524;BME280;74765;44.538;18.668;2024-03-06T06:48:07;98804.34;;;20.79;34.48
84524;BME280;74765;44.538;18.668;2024-03-06T06:50:35;98800.03;;;20.93;34.20
84524;BME280;74765;44.538;18.668;2024-03-06T06:53:00;98803.78;;;20.57;34.69
84524;BME280;74765;44.538;18.668;2024-03-06T06:55:26;98805.78;;;21.47;33.07
84524;BME280;74765;44.538;18.668;2024-03-06T06:57:52;98798.16;;;21.59;32.60
84524;BME280;74765;44.538;18.668;2024-03-06T07:00:18;98791.50;;;22.11;31.81
84524;BME280;74765;44.538;18.668;2024-03-06T07:02:47;98795.03;;;19.87;35.72
84524;BME280;74765;44.538;18.668;2024-03-06T07:05:14;98795.19;;;21.46;33.06
84524;BME280;74765;44.538;18.668;2024-03-06T07:07:40;98788.03;;;21.95;32.07
84524;BME280;74765;44.538;18.668;2024-03-06T07:10:06;98798.59;;;20.55;34.55
84524;BME280;74765;44.538;18.668;2024-03-06T07:12:32;98802.47;;;18.69;38.34
84524;BME280;74765;44.538;18.668;2024-03-06T07:14:59;98806.00;;;20.85;34.79
84524;BME280;74765;44.538;18.668;2024-03-06T07:17:25;98802.34;;;19.87;36.03
84524;BME280;74765;44.538;18.668;2024-03-06T07:19:56;98800.22;;;19.94;36.38
84524;BME280;74765;44.538;18.668;2024-03-06T07:22:22;98792.88;;;20.46;35.10
84524;BME280;74765;44.538;18.668;2024-03-06T07:24:51;98794.31;;;21.80;32.48
84524;BME280;74765;44.538;18.668;2024-03-06T07:27:17;98794.91;;;21.27;33.76
84524;BME280;74765;44.538;18.668;2024-03-06T07:29:44;98790.19;;;21.88;32.41
84524;BME280;74765;44.538;18.668;2024-03-06T07:32:09;98789.16;;;21.64;32.95
84524;BME280;74765;44.538;18.668;2024-03-06T07:34:36;98797.41;;;23.26;30.49
84524;BME280;74765;44.538;18.668;2024-03-06T07:37:02;98794.19;;;23.53;30.78
84524;BME280;74765;44.538;18.668;2024-03-06T07:39:27;98803.69;;;23.27;30.60
84524;BME280;74765;44.538;18.668;2024-03-06T07:41:53;98803.25;;;24.01;29.97
84524;BME280;74765;44.538;18.668;2024-03-06T07:44:20;98796.94;;;23.77;30.04
84524;BME280;74765;44.538;18.668;2024-03-06T07:46:46;98800.44;;;23.20;30.44
84524;BME280;74765;44.538;18.668;2024-03-06T07:49:12;98797.00;;;24.24;29.26
84524;BME280;74765;44.538;18.668;2024-03-06T07:51:37;98797.22;;;24.04;29.88
84524;BME280;74765;44.538;18.668;2024-03-06T07:54:03;98797.78;;;23.48;30.94
84524;BME280;74765;44.538;18.668;2024-03-06T07:56:32;98801.78;;;23.61;31.12
84524;BME280;74765;44.538;18.668;2024-03-06T07:59:00;98794.84;;;24.21;30.18
84524;BME280;74765;44.538;18.668;2024-03-06T08:01:26;98801.75;;;24.14;30.09
84524;BME280;74765;44.538;18.668;2024-03-06T08:03:54;98799.25;;;24.41;29.68
84524;BME280;74765;44.538;18.668;2024-03-06T08:06:20;98793.84;;;24.97;28.71
84524;BME280;74765;44.538;18.668;2024-03-06T08:08:46;98792.91;;;25.53;27.38
84524;BME280;74765;44.538;18.668;2024-03-06T08:11:13;98793.94;;;24.68;29.33
84524;BME280;74765;44.538;18.668;2024-03-06T08:13:39;98792.09;;;25.20;28.42
84524;BME280;74765;44.538;18.668;2024-03-06T08:16:08;98789.63;;;25.56;28.07
84524;BME280;74765;44.538;18.668;2024-03-06T08:18:34;98789.66;;;25.97;27.32
84524;BME280;74765;44.538;18.668;2024-03-06T08:21:01;98790.63;;;25.60;28.32
84524;BME280;74765;44.538;18.668;2024-03-06T08:23:27;98787.00;;;26.19;27.17
84524;BME280;74765;44.538;18.668;2024-03-06T08:26:18;98792.88;;;25.72;27.92
84524;BME280;74765;44.538;18.668;2024-03-06T08:28:43;98788.84;;;25.50;27.80
84524;BME280;74765;44.538;18.668;2024-03-06T08:31:08;98792.38;;;25.69;27.82
84524;BME280;74765;44.538;18.668;2024-03-06T08:33:34;98784.34;;;25.27;28.44
84524;BME280;74765;44.538;18.668;2024-03-06T08:36:00;98783.31;;;25.55;28.15
84524;BME280;74765;44.538;18.668;2024-03-06T08:38:26;98782.56;;;26.23;26.99
84524;BME280;74765;44.538;18.668;2024-03-06T08:40:52;98787.03;;;26.46;27.08
84524;BME280;74765;44.538;18.668;2024-03-06T08:43:18;98788.41;;;27.29;26.36
84524;BME280;74765;44.538;18.668;2024-03-06T08:45:45;98776.31;;;26.72;26.36
84524;BME280;74765;44.538;18.668;2024-03-06T08:48:11;98776.59;;;26.21;27.11
84524;BME280;74765;44.538;18.668;2024-03-06T08:50:38;98774.44;;;24.56;29.56
84524;BME280;74765;44.538;18.668;2024-03-06T08:53:04;98788.66;;;24.96;29.06
84524;BME280;74765;44.538;18.668;2024-03-06T08:55:29;98780.44;;;24.96;28.91
84524;BME280;74765;44.538;18.668;2024-03-06T08:57:55;98771.16;;;25.29;28.55
84524;BME280;74765;44.538;18.668;2024-03-06T09:00:21;98766.50;;;25.30;28.80
84524;BME280;74765;44.538;18.668;2024-03-06T09:02:52;98758.72;;;25.96;27.97
84524;BME280;74765;44.538;18.668;2024-03-06T09:05:18;98766.41;;;26.98;26.84
84524;BME280;74765;44.538;18.668;2024-03-06T09:07:45;98765.72;;;26.93;26.72
84524;BME280;74765;44.538;18.668;2024-03-06T09:10:12;98762.78;;;25.99;27.49
84524;BME280;74765;44.538;18.668;2024-03-06T09:12:38;98766.03;;;26.78;26.60
84524;BME280;74765;44.538;18.668;2024-03-06T09:15:05;98755.78;;;26.34;27.57
84524;BME280;74765;44.538;18.668;2024-03-06T09:17:33;98757.09;;;26.86;26.47
84524;BME280;74765;44.538;18.668;2024-03-06T09:19:58;98756.09;;;26.32;27.08
84524;BME280;74765;44.538;18.668;2024-03-06T09:22:24;98753.13;;;26.78;26.99
84524;BME280;74765;44.538;18.668;2024-03-06T09:24:50;98750.16;;;27.86;26.05
84524;BME280;74765;44.538;18.668;2024-03-06T09:27:19;98745.44;;;26.67;26.18
84524;BME280;74765;44.538;18.668;2024-03-06T09:29:45;98743.47;;;26.45;26.82
84524;BME280;74765;44.538;18.668;2024-03-06T09:32:12;98746.75;;;27.50;25.23
84524;BME280;74765;44.538;18.668;2024-03-06T09:34:41;98747.59;;;27.59;25.52
84524;BME280;74765;44.538;18.668;2024-03-06T09:37:08;98743.47;;;27.70;25.07
84524;BME280;74765;44.538;18.668;2024-03-06T09:39:37;98741.84;;;28.08;25.04
84524;BME280;74765;44.538;18.668;2024-03-06T09:42:14;98739.28;;;28.20;24.44
84524;BME280;74765;44.538;18.668;2024-03-06T09:44:40;98736.59;;;28.46;24.17
84524;BME280;74765;44.538;18.668;2024-03-06T09:47:07;98734.28;;;27.74;24.59
84524;BME280;74765;44.538;18.668;2024-03-06T09:49:41;98736.75;;;27.84;24.85
84524;BME280;74765;44.538;18.668;2024-03-06T09:52:09;98734.00;;;27.84;24.34
84524;BME280;74765;44.538;18.668;2024-03-06T09:54:38;98738.69;;;28.41;23.56
84524;BME280;74765;44.538;18.668;2024-03-06T09:57:05;98731.72;;;28.43;23.47
84524;BME280;74765;44.538;18.668;2024-03-06T09:59:31;98725.97;;;28.88;22.71
84524;BME280;74765;44.538;18.668;2024-03-06T10:01:58;98722.50;;;28.56;22.97
84524;BME280;74765;44.538;18.668;2024-03-06T10:04:28;98732.69;;;27.82;23.70
84524;BME280;74765;44.538;18.668;2024-03-06T10:06:59;98729.22;;;27.15;24.04
84524;BME280;74765;44.538;18.668;2024-03-06T10:09:26;98726.75;;;25.64;25.78
84524;BME280;74765;44.538;18.668;2024-03-06T10:11:53;98716.44;;;26.52;24.63
84524;BME280;74765;44.538;18.668;2024-03-06T10:14:19;98720.47;;;25.78;25.92
84524;BME280;74765;44.538;18.668;2024-03-06T10:19:19;98714.00;;;26.86;24.32
84524;BME280;74765;44.538;18.668;2024-03-06T10:21:48;98713.50;;;27.51;24.16
84524;BME280;74765;44.538;18.668;2024-03-06T10:26:52;98705.78;;;27.70;23.65
84524;BME280;74765;44.538;18.668;2024-03-06T10:29:21;98704.59;;;28.93;21.95
84524;BME280;74765;44.538;18.668;2024-03-06T10:31:48;98695.16;;;28.25;22.09
84524;BME280;74765;44.538;18.668;2024-03-06T10:34:20;98700.94;;;27.67;22.32
84524;BME280;74765;44.538;18.668;2024-03-06T10:36:57;98691.22;;;27.61;23.52
84524;BME280;74765;44.538;18.668;2024-03-06T10:39:30;98688.22;;;28.37;22.01
84524;BME280;74765;44.538;18.668;2024-03-06T10:41:57;98690.19;;;28.79;21.19
84524;BME280;74765;44.538;18.668;2024-03-06T10:44:26;98671.59;;;29.48;20.53
84524;BME280;74765;44.538;18.668;2024-03-06T10:47:20;98671.22;;;28.52;21.08
84524;BME280;74765;44.538;18.668;2024-03-06T10:49:47;98673.19;;;27.77;21.84
84524;BME280;74765;44.538;18.668;2024-03-06T10:52:24;98664.53;;;28.01;22.22
84524;BME280;74765;44.538;18.668;2024-03-06T10:54:53;98663.41;;;27.54;21.97
84524;BME280;74765;44.538;18.668;2024-03-06T10:57:20;98662.19;;;27.07;22.71
84524;BME280;74765;44.538;18.668;2024-03-06T10:59:52;98649.25;;;24.91;25.15
84524;BME280;74765;44.538;18.668;2024-03-06T11:02:24;98650.72;;;26.11;24.36
84524;BME280;74765;44.538;18.668;2024-03-06T11:04:51;98645.41;;;26.86;23.28
84524;BME280;74765;44.538;18.668;2024-03-06T11:07:19;98651.25;;;27.47;22.38
84524;BME280;74765;44.538;18.668;2024-03-06T11:09:45;98650.75;;;27.14;24.55
84524;BME280;74765;44.538;18.668;2024-03-06T11:12:36;98651.91;;;26.19;26.90
84524;BME280;74765;44.538;18.668;2024-03-06T11:15:29;98651.00;;;24.30;29.80
84524;BME280;74765;44.538;18.668;2024-03-06T11:27:06;98632.38;;;23.24;29.34
84524;BME280;74765;44.538;18.668;2024-03-06T11:30:09;98636.56;;;24.06;28.13
84524;BME280;74765;44.538;18.668;2024-03-06T11:32:58;98624.56;;;24.07;27.77
84524;BME280;74765;44.538;18.668;2024-03-06T11:35:30;98623.91;;;24.66;26.59
84524;BME280;74765;44.538;18.668;2024-03-06T11:38:05;98621.63;;;23.61;28.90
84524;BME280;74765;44.538;18.668;2024-03-06T11:40:58;98625.63;;;23.69;29.50
84524;BME280;74765;44.538;18.668;2024-03-06T11:43:30;98623.50;;;23.84;30.00
84524;BME280;74765;44.538;18.668;2024-03-06T11:46:09;98619.22;;;22.00;33.47
84524;BME280;74765;44.538;18.668;2024-03-06T11:48:36;98620.28;;;23.59;31.44
84524;BME280;74765;44.538;18.668;2024-03-06T11:51:05;98614.03;;;23.29;31.06
84524;BME280;74765;44.538;18.668;2024-03-06T11:53:33;98613.13;;;23.39;32.29
84524;BME280;74765;44.538;18.668;2024-03-06T11:55:59;98614.91;;;23.25;32.55
84524;BME280;74765;44.538;18.668;2024-03-06T11:58:25;98609.69;;;22.42;34.38
84524;BME280;74765;44.538;18.668;2024-03-06T12:00:53;98601.16;;;23.11;32.48
84524;BME280;74765;44.538;18.668;2024-03-06T12:03:20;98597.91;;;22.51;33.62
84524;BME280;74765;44.538;18.668;2024-03-06T12:05:50;98602.69;;;21.81;35.10
84524;BME280;74765;44.538;18.668;2024-03-06T12:08:16;98588.59;;;22.86;33.04
84524;BME280;74765;44.538;18.668;2024-03-06T12:10:46;98596.41;;;22.30;33.17
84524;BME280;74765;44.538;18.668;2024-03-06T12:13:13;98591.84;;;22.88;32.39
84524;BME280;74765;44.538;18.668;2024-03-06T12:15:42;98586.84;;;22.38;32.64
84524;BME280;74765;44.538;18.668;2024-03-06T12:18:13;98581.28;;;22.48;32.87
84524;BME280;74765;44.538;18.668;2024-03-06T12:20:42;98568.91;;;22.94;31.61
84524;BME280;74765;44.538;18.668;2024-03-06T12:23:31;98575.50;;;22.88;31.40
84524;BME280;74765;44.538;18.668;2024-03-06T12:26:07;98568.69;;;21.79;34.38
84524;BME280;74765;44.538;18.668;2024-03-06T12:28:42;98571.13;;;21.11;34.21
84524;BME280;74765;44.538;18.668;2024-03-06T12:31:14;98571.16;;;22.53;31.79
84524;BME280;74765;44.538;18.668;2024-03-06T12:33:57;98559.91;;;22.94;29.66
84524;BME280;74765;44.538;18.668;2024-03-06T12:36:26;98568.03;;;22.02;30.74
84524;BME280;74765;44.538;18.668;2024-03-06T12:38:55;98552.44;;;23.04;29.25
84524;BME280;74765;44.538;18.668;2024-03-06T12:41:22;98552.91;;;22.54;29.83
84524;BME280;74765;44.538;18.668;2024-03-06T12:43:48;98552.69;;;21.08;32.49
84524;BME280;74765;44.538;18.668;2024-03-06T12:46:13;98545.75;;;21.46;31.97
84524;BME280;74765;44.538;18.668;2024-03-06T12:48:39;98542.03;;;22.49;30.33
84524;BME280;74765;44.538;18.668;2024-03-06T12:51:05;98541.16;;;22.24;31.03
84524;BME280;74765;44.538;18.668;2024-03-06T12:53:31;98538.78;;;22.52;31.18
84524;BME280;74765;44.538;18.668;2024-03-06T12:55:58;98531.34;;;23.10;30.42
84524;BME280;74765;44.538;18.668;2024-03-06T12:58:24;98539.06;;;22.16;31.84
84524;BME280;74765;44.538;18.668;2024-03-06T13:00:50;98536.41;;;23.45;29.08
84524;BME280;74765;44.538;18.668;2024-03-06T13:03:18;98522.69;;;23.88;29.97
84524;BME280;74765;44.538;18.668;2024-03-06T13:05:49;98529.66;;;23.80;30.55